sensor_id;sensor_type;location;lat;lon;timestamp;temperature;humidity
37274;DHT22;23161;51.250;5.554;2022-10-16T00:02:25;14.40;99.90
37274;DHT22;23161;51.250;5.554;2022-10-16T00:04:50;14.40;99.90
37274;DHT22;23161;51.250;5.554;2022-10-16T00:07:17;14.40;99.90
37274;DHT22;23161;51.250;5.554;2022-10-16T00:09:43;14.40;99.90
37274;DHT22;23161;51.250;5.554;2022-10-16T00:12:09;14.40;99.90
37274;DHT22;23161;51.250;5.554;2022-10-16T00:14:35;14.40;99.90
37274;DHT22;23161;51.250;5.554;2022-10-16T00:17:00;14.40;99.90
37274;DHT22;23161;51.250;5.554;2022-10-16T00:19:27;14.40;99.90
37274;DHT22;23161;51.250;5.554;2022-10-16T00:21:53;14.40;99.90
37274;DHT22;23161;51.250;5.554;2022-10-16T00:24:18;14.30;99.90
37274;DHT22;23161;51.250;5.554;2022-10-16T00:26:44;14.30;99.90
37274;DHT22;23161;51.250;5.554;2022-10-16T00:29:11;14.30;99.90
37274;DHT22;23161;51.250;5.554;2022-10-16T00:31:37;14.30;99.90
37274;DHT22;23161;51.250;5.554;2022-10-16T00:34:02;14.30;99.90
37274;DHT22;23161;51.250;5.554;2022-10-16T00:36:28;14.30;99.90
37274;DHT22;23161;51.250;5.554;2022-10-16T00:38:56;14.30;99.90
37274;DHT22;23161;51.250;5.554;2022-10-16T00:41:24;14.30;99.90
37274;DHT22;23161;51.250;5.554;2022-10-16T00:43:52;14.30;99.90
37274;DHT22;23161;51.250;5.554;2022-10-16T00:51:46;14.30;99.90
37274;DHT22;23161;51.250;5.554;2022-10-16T00:56:48;14.30;99.90
37274;DHT22;23161;51.250;5.554;2022-10-16T00:59:20;14.30;99.90
37274;DHT22;23161;51.250;5.554;2022-10-16T01:01:47;14.30;99.90
37274;DHT22;23161;51.250;5.554;2022-10-16T01:04:13;14.30;99.90
37274;DHT22;23161;51.250;5.554;2022-10-16T01:06:58;14.20;99.90
37274;DHT22;23161;51.250;5.554;2022-10-16T01:12:49;14.20;99.90
37274;DHT22;23161;51.250;5.554;2022-10-16T01:17:56;14.20;99.90
37274;DHT22;23161;51.250;5.554;2022-10-16T01:20:27;14.20;99.90
37274;DHT22;23161;51.250;5.554;2022-10-16T01:26:37;14.20;99.90
37274;DHT22;23161;51.250;5.554;2022-10-16T01:29:16;14.20;99.90
37274;DHT22;23161;51.250;5.554;2022-10-16T01:31:48;14.20;99.90
37274;DHT22;23161;51.250;5.554;2022-10-16T01:34:18;14.20;99.90
37274;DHT22;23161;51.250;5.554;2022-10-16T01:36:53;14.20;99.90
37274;DHT22;23161;51.250;5.554;2022-10-16T01:39:25;14.20;99.90
37274;DHT22;23161;51.250;5.554;2022-10-16T01:42:00;14.20;99.90
37274;DHT22;23161;51.250;5.554;2022-10-16T01:44:31;14.20;99.90
37274;DHT22;23161;51.250;5.554;2022-10-16T01:46:58;14.10;99.90
37274;DHT22;23161;51.250;5.554;2022-10-16T01:49:27;14.10;99.90
37274;DHT22;23161;51.250;5.554;2022-10-16T01:51:57;14.10;99.90
37274;DHT22;23161;51.250;5.554;2022-10-16T01:54:27;14.10;99.90
37274;DHT22;23161;51.250;5.554;2022-10-16T01:56:55;14.10;99.90
37274;DHT22;23161;51.250;5.554;2022-10-16T01:59:23;14.10;99.90
37274;DHT22;23161;51.250;5.554;2022-10-16T02:01:55;14.10;99.90
37274;DHT22;23161;51.250;5.554;2022-10-16T02:04:31;14.10;99.90
37274;DHT22;23161;51.250;5.554;2022-10-16T02:06:59;14.10;99.90
37274;DHT22;23161;51.250;5.554;2022-10-16T02:09:25;14.10;99.90
37274;DHT22;23161;51.250;5.554;2022-10-16T02:11:54;14.00;99.90
37274;DHT22;23161;51.250;5.554;2022-10-16T02:14:23;14.10;99.90
37274;DHT22;23161;51.250;5.554;2022-10-16T02:16:50;14.00;99.90
37274;DHT22;23161;51.250;5.554;2022-10-16T02:19:18;14.00;99.90
37274;DHT22;23161;51.250;5.554;2022-10-16T02:21:58;14.10;99.90
37274;DHT22;23161;51.250;5.554;2022-10-16T02:29:31;14.00;99.90
37274;DHT22;23161;51.250;5.554;2022-10-16T02:32:02;14.00;99.90
37274;DHT22;23161;51.250;5.554;2022-10-16T02:34:32;14.00;99.90
37274;DHT22;23161;51.250;5.554;2022-10-16T02:37:00;14.00;99.90
37274;DHT22;23161;51.250;5.554;2022-10-16T02:39:28;14.00;99.90
37274;DHT22;23161;51.250;5.554;2022-10-16T02:41:54;14.00;99.90
37274;DHT22;23161;51.250;5.554;2022-10-16T02:44:20;14.00;99.90
37274;DHT22;23161;51.250;5.554;2022-10-16T02:46:46;14.00;99.90
37274;DHT22;23161;51.250;5.554;2022-10-16T02:49:12;14.00;99.90
37274;DHT22;23161;51.250;5.554;2022-10-16T02:51:38;14.00;99.90
37274;DHT22;23161;51.250;5.554;2022-10-16T02:54:04;14.00;99.90
37274;DHT22;23161;51.250;5.554;2022-10-16T02:56:30;13.90;99.90
37274;DHT22;23161;51.250;5.554;2022-10-16T02:58:57;13.90;99.90
37274;DHT22;23161;51.250;5.554;2022-10-16T03:01:23;13.90;99.90
37274;DHT22;23161;51.250;5.554;2022-10-16T03:03:49;13.90;99.90
37274;DHT22;23161;51.250;5.554;2022-10-16T03:06:15;14.00;99.90
37274;DHT22;23161;51.250;5.554;2022-10-16T03:08:41;13.90;99.90
37274;DHT22;23161;51.250;5.554;2022-10-16T03:11:07;13.90;99.90
37274;DHT22;23161;51.250;5.554;2022-10-16T03:13:33;13.90;99.90
37274;DHT22;23161;51.250;5.554;2022-10-16T03:15:59;13.90;99.90
37274;DHT22;23161;51.250;5.554;2022-10-16T03:18:24;13.90;99.90
37274;DHT22;23161;51.250;5.554;2022-10-16T03:20:50;13.90;99.90
37274;DHT22;23161;51.250;5.554;2022-10-16T03:23:16;13.90;99.90
37274;DHT22;23161;51.250;5.554;2022-10-16T03:25:42;13.90;99.90
37274;DHT22;23161;51.250;5.554;2022-10-16T03:28:08;13.90;99.90
37274;DHT22;23161;51.250;5.554;2022-10-16T03:30:34;13.90;99.90
37274;DHT22;23161;51.250;5.554;2022-10-16T03:33:00;13.90;99.90
37274;DHT22;23161;51.250;5.554;2022-10-16T03:35:26;13.90;99.90
37274;DHT22;23161;51.250;5.554;2022-10-16T03:37:52;13.90;99.90
37274;DHT22;23161;51.250;5.554;2022-10-16T03:40:19;13.90;99.90
37274;DHT22;23161;51.250;5.554;2022-10-16T03:42:45;13.90;99.90
37274;DHT22;23161;51.250;5.554;2022-10-16T03:45:11;13.90;99.90
37274;DHT22;23161;51.250;5.554;2022-10-16T03:47:37;13.90;99.90
37274;DHT22;23161;51.250;5.554;2022-10-16T03:50:04;13.90;99.90
37274;DHT22;23161;51.250;5.554;2022-10-16T03:52:30;13.90;99.90
37274;DHT22;23161;51.250;5.554;2022-10-16T03:54:55;13.90;99.90
37274;DHT22;23161;51.250;5.554;2022-10-16T03:57:21;13.90;99.90
37274;DHT22;23161;51.250;5.554;2022-10-16T03:59:47;13.80;99.90
37274;DHT22;23161;51.250;5.554;2022-10-16T04:02:13;13.80;99.90
37274;DHT22;23161;51.250;5.554;2022-10-16T04:04:39;13.80;99.90
37274;DHT22;23161;51.250;5.554;2022-10-16T04:07:05;13.80;99.90
37274;DHT22;23161;51.250;5.554;2022-10-16T04:09:31;13.80;99.90
37274;DHT22;23161;51.250;5.554;2022-10-16T04:11:57;13.80;99.90
37274;DHT22;23161;51.250;5.554;2022-10-16T04:14:22;13.80;99.90
37274;DHT22;23161;51.250;5.554;2022-10-16T04:16:48;13.80;99.90
37274;DHT22;23161;51.250;5.554;2022-10-16T04:19:14;13.80;99.90
37274;DHT22;23161;51.250;5.554;2022-10-16T04:21:40;13.80;99.90
37274;DHT22;23161;51.250;5.554;2022-10-16T04:24:06;13.80;99.90
37274;DHT22;23161;51.250;5.554;2022-10-16T04:26:32;13.80;99.90
37274;DHT22;23161;51.250;5.554;2022-10-16T04:28:58;13.80;99.90
37274;DHT22;23161;51.250;5.554;2022-10-16T04:31:23;13.80;99.90
37274;DHT22;23161;51.250;5.554;2022-10-16T04:33:49;13.80;99.90
37274;DHT22;23161;51.250;5.554;2022-10-16T04:36:15;13.70;99.90
37274;DHT22;23161;51.250;5.554;2022-10-16T04:38:41;13.70;99.90
37274;DHT22;23161;51.250;5.554;2022-10-16T04:41:07;13.70;99.90
37274;DHT22;23161;51.250;5.554;2022-10-16T04:43:34;13.70;99.90
37274;DHT22;23161;51.250;5.554;2022-10-16T04:46:00;13.70;99.90
37274;DHT22;23161;51.250;5.554;2022-10-16T04:48:27;13.70;99.90
37274;DHT22;23161;51.250;5.554;2022-10-16T04:50:53;13.80;99.90
37274;DHT22;23161;51.250;5.554;2022-10-16T04:53:18;13.70;99.90
37274;DHT22;23161;51.250;5.554;2022-10-16T04:55:44;13.80;99.90
37274;DHT22;23161;51.250;5.554;2022-10-16T04:58:10;13.70;99.90
37274;DHT22;23161;51.250;5.554;2022-10-16T05:00:37;13.70;99.90
37274;DHT22;23161;51.250;5.554;2022-10-16T05:03:04;13.80;99.90
37274;DHT22;23161;51.250;5.554;2022-10-16T05:05:33;13.70;99.90
37274;DHT22;23161;51.250;5.554;2022-10-16T05:07:58;13.70;99.90
37274;DHT22;23161;51.250;5.554;2022-10-16T05:10:24;13.70;99.90
37274;DHT22;23161;51.250;5.554;2022-10-16T05:12:50;13.70;99.90
37274;DHT22;23161;51.250;5.554;2022-10-16T05:15:17;13.70;99.90
37274;DHT22;23161;51.250;5.554;2022-10-16T05:17:43;13.70;99.90
37274;DHT22;23161;51.250;5.554;2022-10-16T05:20:09;13.70;99.90
37274;DHT22;23161;51.250;5.554;2022-10-16T05:22:34;13.70;99.90
37274;DHT22;23161;51.250;5.554;2022-10-16T05:25:00;13.70;99.90
37274;DHT22;23161;51.250;5.554;2022-10-16T05:27:27;13.70;99.90
37274;DHT22;23161;51.250;5.554;2022-10-16T05:29:53;13.70;99.90
37274;DHT22;23161;51.250;5.554;2022-10-16T05:32:19;13.70;99.90
37274;DHT22;23161;51.250;5.554;2022-10-16T05:34:45;13.60;99.90
37274;DHT22;23161;51.250;5.554;2022-10-16T05:37:11;13.70;99.90
37274;DHT22;23161;51.250;5.554;2022-10-16T05:39:38;13.60;99.90
37274;DHT22;23161;51.250;5.554;2022-10-16T05:42:05;13.60;99.90
37274;DHT22;23161;51.250;5.554;2022-10-16T05:44:32;13.60;99.90
37274;DHT22;23161;51.250;5.554;2022-10-16T05:47:30;13.60;99.90
37274;DHT22;23161;51.250;5.554;2022-10-16T05:49:56;13.60;99.90
37274;DHT22;23161;51.250;5.554;2022-10-16T05:52:22;13.60;99.90
37274;DHT22;23161;51.250;5.554;2022-10-16T05:54:48;13.60;99.90
37274;DHT22;23161;51.250;5.554;2022-10-16T05:57:14;13.60;99.90
37274;DHT22;23161;51.250;5.554;2022-10-16T05:59:40;13.60;99.90
37274;DHT22;23161;51.250;5.554;2022-10-16T06:02:07;13.60;99.90
37274;DHT22;23161;51.250;5.554;2022-10-16T06:04:34;13.60;99.90
37274;DHT22;23161;51.250;5.554;2022-10-16T06:07:00;13.60;99.90
37274;DHT22;23161;51.250;5.554;2022-10-16T06:09:26;13.60;99.90
37274;DHT22;23161;51.250;5.554;2022-10-16T06:11:52;13.60;99.90
37274;DHT22;23161;51.250;5.554;2022-10-16T06:16:44;13.60;99.90
37274;DHT22;23161;51.250;5.554;2022-10-16T06:19:10;13.60;99.90
37274;DHT22;23161;51.250;5.554;2022-10-16T06:21:37;13.60;99.90
37274;DHT22;23161;51.250;5.554;2022-10-16T06:24:02;13.60;99.90
37274;DHT22;23161;51.250;5.554;2022-10-16T06:26:30;13.60;99.90
37274;DHT22;23161;51.250;5.554;2022-10-16T06:28:58;13.60;99.90
37274;DHT22;23161;51.250;5.554;2022-10-16T06:31:24;13.60;99.90
37274;DHT22;23161;51.250;5.554;2022-10-16T06:33:56;13.60;99.90
37274;DHT22;23161;51.250;5.554;2022-10-16T06:36:23;13.60;99.90
37274;DHT22;23161;51.250;5.554;2022-10-16T06:38:49;13.60;99.90
37274;DHT22;23161;51.250;5.554;2022-10-16T06:41:17;13.60;99.90
37274;DHT22;23161;51.250;5.554;2022-10-16T06:43:44;13.60;99.90
37274;DHT22;23161;51.250;5.554;2022-10-16T06:46:15;13.60;99.90
37274;DHT22;23161;51.250;5.554;2022-10-16T06:48:42;13.60;99.90
37274;DHT22;23161;51.250;5.554;2022-10-16T06:51:19;13.60;99.90
37274;DHT22;23161;51.250;5.554;2022-10-16T06:53:50;13.60;99.90
37274;DHT22;23161;51.250;5.554;2022-10-16T06:56:19;13.50;99.90
37274;DHT22;23161;51.250;5.554;2022-10-16T06:58:46;13.60;99.90
37274;DHT22;23161;51.250;5.554;2022-10-16T07:01:13;13.50;99.90
37274;DHT22;23161;51.250;5.554;2022-10-16T07:03:41;13.60;99.90
37274;DHT22;23161;51.250;5.554;2022-10-16T07:06:09;13.60;99.90
37274;DHT22;23161;51.250;5.554;2022-10-16T07:08:38;13.60;99.90
37274;DHT22;23161;51.250;5.554;2022-10-16T07:11:09;13.60;99.90
37274;DHT22;23161;51.250;5.554;2022-10-16T07:13:37;13.60;99.90
37274;DHT22;23161;51.250;5.554;2022-10-16T07:16:10;13.60;99.90
37274;DHT22;23161;51.250;5.554;2022-10-16T07:18:36;13.60;99.90
37274;DHT22;23161;51.250;5.554;2022-10-16T07:21:15;13.60;99.90
37274;DHT22;23161;51.250;5.554;2022-10-16T07:23:41;13.60;99.90
37274;DHT22;23161;51.250;5.554;2022-10-16T07:26:08;13.60;99.90
37274;DHT22;23161;51.250;5.554;2022-10-16T07:28:35;13.60;99.90
37274;DHT22;23161;51.250;5.554;2022-10-16T07:31:07;13.60;99.90
37274;DHT22;23161;51.250;5.554;2022-10-16T07:33:34;13.60;99.90
37274;DHT22;23161;51.250;5.554;2022-10-16T07:36:00;13.70;99.90
37274;DHT22;23161;51.250;5.554;2022-10-16T07:38:27;13.70;99.90
37274;DHT22;23161;51.250;5.554;2022-10-16T07:41:01;13.70;99.90
37274;DHT22;23161;51.250;5.554;2022-10-16T07:43:28;13.70;99.90
37274;DHT22;23161;51.250;5.554;2022-10-16T07:45:54;13.70;99.90
37274;DHT22;23161;51.250;5.554;2022-10-16T07:48:22;13.70;99.90
37274;DHT22;23161;51.250;5.554;2022-10-16T07:55:41;13.70;99.90
37274;DHT22;23161;51.250;5.554;2022-10-16T07:58:07;13.70;99.90
37274;DHT22;23161;51.250;5.554;2022-10-16T08:00:33;13.80;99.90
37274;DHT22;23161;51.250;5.554;2022-10-16T08:03:00;13.80;99.90
37274;DHT22;23161;51.250;5.554;2022-10-16T08:05:30;13.80;99.90
37274;DHT22;23161;51.250;5.554;2022-10-16T08:07:57;13.80;99.90
37274;DHT22;23161;51.250;5.554;2022-10-16T08:10:25;13.80;99.90
37274;DHT22;23161;51.250;5.554;2022-10-16T08:12:52;13.80;99.90
37274;DHT22;23161;51.250;5.554;2022-10-16T08:15:18;13.90;99.90
37274;DHT22;23161;51.250;5.554;2022-10-16T08:17:44;13.90;99.90
37274;DHT22;23161;51.250;5.554;2022-10-16T08:20:12;13.90;99.90
37274;DHT22;23161;51.250;5.554;2022-10-16T08:22:37;13.90;99.90
37274;DHT22;23161;51.250;5.554;2022-10-16T08:25:03;13.90;99.90
37274;DHT22;23161;51.250;5.554;2022-10-16T08:27:33;13.90;99.90
37274;DHT22;23161;51.250;5.554;2022-10-16T08:29:58;14.00;99.90
37274;DHT22;23161;51.250;5.554;2022-10-16T08:32:24;14.00;99.90
37274;DHT22;23161;51.250;5.554;2022-10-16T08:37:16;14.00;99.90
37274;DHT22;23161;51.250;5.554;2022-10-16T08:39:42;14.00;99.90
37274;DHT22;23161;51.250;5.554;2022-10-16T08:42:29;14.10;99.90
37274;DHT22;23161;51.250;5.554;2022-10-16T08:45:12;14.10;99.90
37274;DHT22;23161;51.250;5.554;2022-10-16T08:48:00;14.20;99.90
37274;DHT22;23161;51.250;5.554;2022-10-16T08:50:30;14.20;99.90
37274;DHT22;23161;51.250;5.554;2022-10-16T08:52:57;14.30;99.90
37274;DHT22;23161;51.250;5.554;2022-10-16T08:58:14;14.40;99.90
37274;DHT22;23161;51.250;5.554;2022-10-16T09:00:41;14.40;99.90
37274;DHT22;23161;51.250;5.554;2022-10-16T09:15:05;14.70;99.90
37274;DHT22;23161;51.250;5.554;2022-10-16T09:22:32;14.80;99.90
37274;DHT22;23161;51.250;5.554;2022-10-16T09:25:11;15.00;99.90
37274;DHT22;23161;51.250;5.554;2022-10-16T09:27:38;15.10;99.90
37274;DHT22;23161;51.250;5.554;2022-10-16T09:30:16;15.20;99.90
37274;DHT22;23161;51.250;5.554;2022-10-16T09:32:44;15.30;99.90
37274;DHT22;23161;51.250;5.554;2022-10-16T09:35:27;15.40;99.90
37274;DHT22;23161;51.250;5.554;2022-10-16T09:37:56;15.40;99.90
37274;DHT22;23161;51.250;5.554;2022-10-16T09:40:37;15.50;99.90
37274;DHT22;23161;51.250;5.554;2022-10-16T09:43:17;15.40;99.90
37274;DHT22;23161;51.250;5.554;2022-10-16T09:48:44;15.70;99.90
37274;DHT22;23161;51.250;5.554;2022-10-16T09:53:45;15.80;99.90
37274;DHT22;23161;51.250;5.554;2022-10-16T09:56:30;15.80;99.90
37274;DHT22;23161;51.250;5.554;2022-10-16T10:01:54;16.00;99.90
37274;DHT22;23161;51.250;5.554;2022-10-16T10:04:23;16.20;99.90
37274;DHT22;23161;51.250;5.554;2022-10-16T10:06:54;16.20;99.90
37274;DHT22;23161;51.250;5.554;2022-10-16T10:09:32;16.20;99.90
37274;DHT22;23161;51.250;5.554;2022-10-16T10:12:02;16.20;99.90
37274;DHT22;23161;51.250;5.554;2022-10-16T10:14:30;16.20;99.90
37274;DHT22;23161;51.250;5.554;2022-10-16T10:19:46;16.30;99.90
37274;DHT22;23161;51.250;5.554;2022-10-16T10:30:22;16.00;99.90
37274;DHT22;23161;51.250;5.554;2022-10-16T10:49:54;16.20;99.90
37274;DHT22;23161;51.250;5.554;2022-10-16T11:01:26;16.00;99.90
37274;DHT22;23161;51.250;5.554;2022-10-16T11:07:28;16.00;99.90
37274;DHT22;23161;51.250;5.554;2022-10-16T11:10:13;16.10;99.90
37274;DHT22;23161;51.250;5.554;2022-10-16T11:12:44;16.00;99.90
37274;DHT22;23161;51.250;5.554;2022-10-16T11:15:18;16.00;99.90
37274;DHT22;23161;51.250;5.554;2022-10-16T11:17:59;16.00;99.90
37274;DHT22;23161;51.250;5.554;2022-10-16T11:20:34;16.00;99.90
37274;DHT22;23161;51.250;5.554;2022-10-16T11:25:43;16.00;99.90
37274;DHT22;23161;51.250;5.554;2022-10-16T11:28:35;16.00;99.90
37274;DHT22;23161;51.250;5.554;2022-10-16T11:31:29;16.20;99.90
37274;DHT22;23161;51.250;5.554;2022-10-16T11:34:19;16.30;99.90
37274;DHT22;23161;51.250;5.554;2022-10-16T11:36:52;16.20;99.90
37274;DHT22;23161;51.250;5.554;2022-10-16T11:39:27;16.20;99.90
37274;DHT22;23161;51.250;5.554;2022-10-16T11:42:09;16.10;99.90
37274;DHT22;23161;51.250;5.554;2022-10-16T11:49:37;16.10;99.90
37274;DHT22;23161;51.250;5.554;2022-10-16T11:52:23;16.10;99.90
37274;DHT22;23161;51.250;5.554;2022-10-16T11:55:16;16.10;99.90
37274;DHT22;23161;51.250;5.554;2022-10-16T11:57:59;16.10;99.90
37274;DHT22;23161;51.250;5.554;2022-10-16T12:00:33;16.10;99.90
37274;DHT22;23161;51.250;5.554;2022-10-16T12:08:26;16.10;99.90
37274;DHT22;23161;51.250;5.554;2022-10-16T12:10:53;16.10;99.90
37274;DHT22;23161;51.250;5.554;2022-10-16T12:13:38;16.10;99.90
37274;DHT22;23161;51.250;5.554;2022-10-16T12:16:24;16.10;99.90
37274;DHT22;23161;51.250;5.554;2022-10-16T12:19:11;16.20;99.90
37274;DHT22;23161;51.250;5.554;2022-10-16T12:21:37;16.30;99.90
37274;DHT22;23161;51.250;5.554;2022-10-16T12:24:03;16.40;99.90
37274;DHT22;23161;51.250;5.554;2022-10-16T12:26:38;16.50;99.90
37274;DHT22;23161;51.250;5.554;2022-10-16T12:31:52;17.00;99.90
37274;DHT22;23161;51.250;5.554;2022-10-16T12:34:33;17.10;99.90
37274;DHT22;23161;51.250;5.554;2022-10-16T12:37:36;17.30;99.90
37274;DHT22;23161;51.250;5.554;2022-10-16T12:42:47;17.20;99.90
37274;DHT22;23161;51.250;5.554;2022-10-16T12:45:33;17.10;99.90
37274;DHT22;23161;51.250;5.554;2022-10-16T12:48:01;17.10;99.90
37274;DHT22;23161;51.250;5.554;2022-10-16T12:52:57;17.00;99.90
37274;DHT22;23161;51.250;5.554;2022-10-16T12:55:24;16.90;99.90
37274;DHT22;23161;51.250;5.554;2022-10-16T13:11:17;16.90;99.90
37274;DHT22;23161;51.250;5.554;2022-10-16T13:30:30;16.80;99.90
37274;DHT22;23161;51.250;5.554;2022-10-16T13:33:01;16.80;99.90
37274;DHT22;23161;51.250;5.554;2022-10-16T13:35:30;16.70;99.90
37274;DHT22;23161;51.250;5.554;2022-10-16T13:38:15;16.70;99.90
37274;DHT22;23161;51.250;5.554;2022-10-16T13:43:17;16.70;99.90
37274;DHT22;23161;51.250;5.554;2022-10-16T13:45:55;16.60;99.90
37274;DHT22;23161;51.250;5.554;2022-10-16T13:48:22;16.60;99.90
37274;DHT22;23161;51.250;5.554;2022-10-16T13:51:02;16.60;99.90
37274;DHT22;23161;51.250;5.554;2022-10-16T13:53:30;16.60;99.90
37274;DHT22;23161;51.250;5.554;2022-10-16T13:55:56;16.60;99.90
37274;DHT22;23161;51.250;5.554;2022-10-16T14:00:57;16.60;99.90
37274;DHT22;23161;51.250;5.554;2022-10-16T14:03:24;16.60;99.90
37274;DHT22;23161;51.250;5.554;2022-10-16T14:05:55;16.50;99.90
37274;DHT22;23161;51.250;5.554;2022-10-16T14:08:24;16.50;99.90
37274;DHT22;23161;51.250;5.554;2022-10-16T14:10:53;16.50;99.90
37274;DHT22;23161;51.250;5.554;2022-10-16T14:13:44;16.50;99.90
37274;DHT22;23161;51.250;5.554;2022-10-16T14:16:15;16.60;99.90
37274;DHT22;23161;51.250;5.554;2022-10-16T14:18:45;16.60;99.90
37274;DHT22;23161;51.250;5.554;2022-10-16T14:21:12;16.60;99.90
37274;DHT22;23161;51.250;5.554;2022-10-16T14:23:41;16.70;99.90
37274;DHT22;23161;51.250;5.554;2022-10-16T14:28:36;16.70;99.90
37274;DHT22;23161;51.250;5.554;2022-10-16T14:31:17;16.60;99.90
37274;DHT22;23161;51.250;5.554;2022-10-16T14:33:47;16.60;99.90
37274;DHT22;23161;51.250;5.554;2022-10-16T14:36:15;16.60;99.90
37274;DHT22;23161;51.250;5.554;2022-10-16T14:41:29;16.60;99.90
37274;DHT22;23161;51.250;5.554;2022-10-16T14:43:56;16.60;99.90
37274;DHT22;23161;51.250;5.554;2022-10-16T14:46:31;16.60;99.90
37274;DHT22;23161;51.250;5.554;2022-10-16T14:49:19;16.60;99.90
37274;DHT22;23161;51.250;5.554;2022-10-16T14:51:46;16.60;99.90
37274;DHT22;23161;51.250;5.554;2022-10-16T14:54:14;16.60;99.90
37274;DHT22;23161;51.250;5.554;2022-10-16T14:56:55;16.60;99.90
37274;DHT22;23161;51.250;5.554;2022-10-16T14:59:29;16.60;99.90
37274;DHT22;23161;51.250;5.554;2022-10-16T15:01:55;16.60;99.90
37274;DHT22;23161;51.250;5.554;2022-10-16T15:04:21;16.60;99.90
37274;DHT22;23161;51.250;5.554;2022-10-16T15:06:47;16.60;99.90
37274;DHT22;23161;51.250;5.554;2022-10-16T15:09:13;16.60;99.90
37274;DHT22;23161;51.250;5.554;2022-10-16T15:11:39;16.60;99.90
37274;DHT22;23161;51.250;5.554;2022-10-16T15:14:05;16.50;99.90
37274;DHT22;23161;51.250;5.554;2022-10-16T15:16:32;16.50;99.90
37274;DHT22;23161;51.250;5.554;2022-10-16T15:18:57;16.50;99.90
37274;DHT22;23161;51.250;5.554;2022-10-16T15:21:27;16.50;99.90
37274;DHT22;23161;51.250;5.554;2022-10-16T15:23:53;16.50;99.90
37274;DHT22;23161;51.250;5.554;2022-10-16T15:26:20;16.50;99.90
37274;DHT22;23161;51.250;5.554;2022-10-16T15:28:45;16.50;99.90
37274;DHT22;23161;51.250;5.554;2022-10-16T15:31:11;16.50;99.90
37274;DHT22;23161;51.250;5.554;2022-10-16T15:33:37;16.50;99.90
37274;DHT22;23161;51.250;5.554;2022-10-16T15:36:03;16.50;99.90
37274;DHT22;23161;51.250;5.554;2022-10-16T15:38:29;16.50;99.90
37274;DHT22;23161;51.250;5.554;2022-10-16T15:40:56;16.50;99.90
37274;DHT22;23161;51.250;5.554;2022-10-16T15:43:22;16.40;99.90
37274;DHT22;23161;51.250;5.554;2022-10-16T15:46:01;16.50;99.90
37274;DHT22;23161;51.250;5.554;2022-10-16T15:48:29;16.50;99.90
37274;DHT22;23161;51.250;5.554;2022-10-16T15:50:55;16.50;99.90
37274;DHT22;23161;51.250;5.554;2022-10-16T15:53:22;16.50;99.90
37274;DHT22;23161;51.250;5.554;2022-10-16T15:55:47;16.50;99.90
37274;DHT22;23161;51.250;5.554;2022-10-16T15:58:13;16.40;99.90
37274;DHT22;23161;51.250;5.554;2022-10-16T16:00:39;16.40;99.90
37274;DHT22;23161;51.250;5.554;2022-10-16T16:03:05;16.40;99.90
37274;DHT22;23161;51.250;5.554;2022-10-16T16:05:30;16.40;99.90
37274;DHT22;23161;51.250;5.554;2022-10-16T16:07:57;16.40;99.90
37274;DHT22;23161;51.250;5.554;2022-10-16T16:10:22;16.40;99.90
37274;DHT22;23161;51.250;5.554;2022-10-16T16:12:49;16.30;99.90
37274;DHT22;23161;51.250;5.554;2022-10-16T16:15:21;16.30;99.90
37274;DHT22;23161;51.250;5.554;2022-10-16T16:17:47;16.30;99.90
37274;DHT22;23161;51.250;5.554;2022-10-16T16:20:14;16.30;99.90
37274;DHT22;23161;51.250;5.554;2022-10-16T16:22:40;16.30;99.90
37274;DHT22;23161;51.250;5.554;2022-10-16T16:25:06;16.30;99.90
37274;DHT22;23161;51.250;5.554;2022-10-16T16:27:32;16.30;99.90
37274;DHT22;23161;51.250;5.554;2022-10-16T16:30:05;16.30;99.90
37274;DHT22;23161;51.250;5.554;2022-10-16T16:32:33;16.30;99.90
37274;DHT22;23161;51.250;5.554;2022-10-16T16:35:00;16.30;99.90
37274;DHT22;23161;51.250;5.554;2022-10-16T16:37:26;16.30;99.90
37274;DHT22;23161;51.250;5.554;2022-10-16T16:39:52;16.20;99.90
37274;DHT22;23161;51.250;5.554;2022-10-16T16:42:20;16.20;99.90
37274;DHT22;23161;51.250;5.554;2022-10-16T16:44:47;16.20;99.90
37274;DHT22;23161;51.250;5.554;2022-10-16T16:47:14;16.20;99.90
37274;DHT22;23161;51.250;5.554;2022-10-16T16:49:39;16.20;99.90
37274;DHT22;23161;51.250;5.554;2022-10-16T16:52:06;16.20;99.90
37274;DHT22;23161;51.250;5.554;2022-10-16T16:54:32;16.20;99.90
37274;DHT22;23161;51.250;5.554;2022-10-16T16:56:58;16.10;99.90
37274;DHT22;23161;51.250;5.554;2022-10-16T16:59:24;16.20;99.90
37274;DHT22;23161;51.250;5.554;2022-10-16T17:01:50;16.10;99.90
37274;DHT22;23161;51.250;5.554;2022-10-16T17:04:16;16.10;99.90
37274;DHT22;23161;51.250;5.554;2022-10-16T17:06:43;16.10;99.90
37274;DHT22;23161;51.250;5.554;2022-10-16T17:09:09;16.10;99.90
37274;DHT22;23161;51.250;5.554;2022-10-16T17:11:38;16.10;99.90
37274;DHT22;23161;51.250;5.554;2022-10-16T17:14:07;16.10;99.90
37274;DHT22;23161;51.250;5.554;2022-10-16T17:16:36;16.10;99.90
37274;DHT22;23161;51.250;5.554;2022-10-16T17:19:14;16.10;99.90
37274;DHT22;23161;51.250;5.554;2022-10-16T17:21:40;16.10;99.90
37274;DHT22;23161;51.250;5.554;2022-10-16T17:24:07;16.10;99.90
37274;DHT22;23161;51.250;5.554;2022-10-16T17:26:33;16.10;99.90
37274;DHT22;23161;51.250;5.554;2022-10-16T17:29:03;16.10;99.90
37274;DHT22;23161;51.250;5.554;2022-10-16T17:31:31;16.10;99.90
37274;DHT22;23161;51.250;5.554;2022-10-16T17:33:59;16.00;99.90
37274;DHT22;23161;51.250;5.554;2022-10-16T17:36:26;16.00;99.90
37274;DHT22;23161;51.250;5.554;2022-10-16T17:38:58;16.00;99.90
37274;DHT22;23161;51.250;5.554;2022-10-16T17:41:26;16.00;99.90
37274;DHT22;23161;51.250;5.554;2022-10-16T17:43:52;16.00;99.90
37274;DHT22;23161;51.250;5.554;2022-10-16T17:46:20;16.00;99.90
37274;DHT22;23161;51.250;5.554;2022-10-16T17:48:49;16.00;99.90
37274;DHT22;23161;51.250;5.554;2022-10-16T17:51:18;16.00;99.90
37274;DHT22;23161;51.250;5.554;2022-10-16T17:53:49;16.00;99.90
37274;DHT22;23161;51.250;5.554;2022-10-16T17:56:15;16.00;99.90
37274;DHT22;23161;51.250;5.554;2022-10-16T17:58:41;16.00;99.90
37274;DHT22;23161;51.250;5.554;2022-10-16T18:01:17;16.00;99.90
37274;DHT22;23161;51.250;5.554;2022-10-16T18:03:43;16.00;99.90
37274;DHT22;23161;51.250;5.554;2022-10-16T18:06:08;16.00;99.90
37274;DHT22;23161;51.250;5.554;2022-10-16T18:08:35;16.00;99.90
37274;DHT22;23161;51.250;5.554;2022-10-16T18:11:02;16.00;99.90
37274;DHT22;23161;51.250;5.554;2022-10-16T18:13:28;16.00;99.90
37274;DHT22;23161;51.250;5.554;2022-10-16T18:16:11;16.00;99.90
37274;DHT22;23161;51.250;5.554;2022-10-16T18:18:38;16.00;99.90
37274;DHT22;23161;51.250;5.554;2022-10-16T18:21:07;15.90;99.90
37274;DHT22;23161;51.250;5.554;2022-10-16T18:23:35;15.90;99.90
37274;DHT22;23161;51.250;5.554;2022-10-16T18:26:02;15.90;99.90